createdAt,value
2023-02-27T00:02:33.006Z,91.62
2023-02-27T00:05:27.002Z,91.87
2023-02-27T00:08:14.018Z,92.50
2023-02-27T00:10:53.991Z,92.70
2023-02-27T00:13:41.982Z,91.49
2023-02-27T00:16:22.039Z,91.75
2023-02-27T00:19:16.055Z,92.56
2023-02-27T00:22:02.993Z,91.75
2023-02-27T00:24:43.052Z,91.88
2023-02-27T00:27:37.055Z,92.39
2023-02-27T00:30:33.142Z,92.21
2023-02-27T00:33:26.995Z,92.92
2023-02-27T00:36:14.024Z,92.44
2023-02-27T00:38:47.117Z,93.05
2023-02-27T00:41:34.041Z,93.61
2023-02-27T00:44:07.105Z,92.44
2023-02-27T00:46:54.124Z,92.61
2023-02-27T00:49:34.012Z,92.76
2023-02-27T00:52:27.997Z,92.25
2023-02-27T00:55:23.170Z,92.98
2023-02-27T00:58:10.008Z,92.56
2023-02-27T01:00:43.277Z,91.43
2023-02-27T01:03:30.023Z,92.17
2023-02-27T01:06:03.164Z,91.84
2023-02-27T01:08:50.061Z,91.76
2023-02-27T01:11:23.301Z,92.35
2023-02-27T01:14:10.005Z,92.50
2023-02-27T01:16:43.199Z,92.39
2023-02-27T01:19:30.029Z,93.40
2023-02-27T01:22:03.215Z,92.91
2023-02-27T01:24:50.025Z,92.38
2023-02-27T01:27:23.382Z,92.84
2023-02-27T01:30:11.046Z,92.87
2023-02-27T01:32:44.240Z,92.77
2023-02-27T01:35:31.028Z,92.88
2023-02-27T01:38:11.044Z,92.81
2023-02-27T01:41:05.040Z,92.14
2023-02-27T01:44:23.048Z,93.56
2023-02-27T01:47:10.046Z,93.51
2023-02-27T01:49:43.215Z,94.64
2023-02-27T01:52:30.034Z,93.96
2023-02-27T01:55:04.166Z,93.43
2023-02-27T01:57:53.025Z,94.51
2023-02-27T02:00:27.139Z,93.75
2023-02-27T02:03:30.042Z,93.47
2023-02-27T02:06:13.031Z,93.40
2023-02-27T02:09:09.040Z,93.56
2023-02-27T02:12:03.023Z,94.07
2023-02-27T02:14:51.060Z,94.29
2023-02-27T02:18:03.163Z,93.90
2023-02-27T02:21:11.059Z,94.35
2023-02-27T02:23:44.145Z,94.87
2023-02-27T02:26:52.059Z,94.36
2023-02-27T02:29:47.091Z,94.97
2023-02-27T02:32:53.019Z,94.29
2023-02-27T02:35:39.049Z,94.67
2023-02-27T02:38:46.059Z,95.03
2023-02-27T02:41:53.032Z,94.60
2023-02-27T02:44:41.297Z,94.99
2023-02-27T02:47:43.039Z,94.92
2023-02-27T02:50:24.165Z,94.94
2023-02-27T02:53:19.120Z,94.55
2023-02-27T02:55:57.174Z,95.55
2023-02-27T02:59:05.073Z,95.27
2023-02-27T03:01:49.134Z,95.84
2023-02-27T03:04:53.034Z,95.75
2023-02-27T03:07:55.078Z,95.76
2023-02-27T03:10:43.040Z,95.89
2023-02-27T03:13:49.050Z,95.42
2023-02-27T03:16:58.048Z,95.34
2023-02-27T03:20:02.056Z,95.63
2023-02-27T03:22:53.037Z,96.22
2023-02-27T03:25:32.184Z,95.90
2023-02-27T03:28:26.050Z,96.34
2023-02-27T03:31:40.082Z,95.84
2023-02-27T03:34:42.057Z,96.17
2023-02-27T03:37:53.049Z,96.58
2023-02-27T03:40:42.177Z,96.33
2023-02-27T03:43:43.036Z,97.24
2023-02-27T03:46:27.093Z,96.58
2023-02-27T03:49:21.047Z,96.25
2023-02-27T03:52:08.065Z,96.32
2023-02-27T03:54:45.156Z,95.89
2023-02-27T03:57:32.065Z,95.80
2023-02-27T04:00:06.298Z,95.99
2023-02-27T04:02:57.129Z,96.30
2023-02-27T04:05:30.243Z,96.71
2023-02-27T04:08:30.147Z,96.37
2023-02-27T04:11:41.295Z,96.54
2023-02-27T04:14:47.247Z,96.90
2023-02-27T04:17:30.278Z,96.94
2023-02-27T04:20:42.111Z,96.98
2023-02-27T04:23:54.061Z,96.30
2023-02-27T04:27:10.098Z,95.89
2023-02-27T04:29:56.291Z,96.46
2023-02-27T04:32:58.072Z,96.86
2023-02-27T04:36:00.092Z,96.42
2023-02-27T04:38:58.080Z,96.12
2023-02-27T04:41:51.281Z,96.13
2023-02-27T04:44:27.252Z,96.72
2023-02-27T04:47:18.109Z,96.92
2023-02-27T04:50:01.279Z,96.87
2023-02-27T04:52:58.108Z,96.89
2023-02-27T04:55:47.082Z,96.68
2023-02-27T04:59:16.089Z,97.33
2023-02-27T05:02:19.249Z,97.21
2023-02-27T05:05:01.113Z,97.55
2023-02-27T05:08:30.086Z,98.17
2023-02-27T05:11:42.094Z,98.28
2023-02-27T05:15:21.071Z,99.67
2023-02-27T05:18:11.119Z,99.21
2023-02-27T05:21:15.288Z,99.24
2023-02-27T05:24:08.108Z,98.91
2023-02-27T05:27:14.085Z,99.64
2023-02-27T05:30:15.149Z,99.61
2023-02-27T05:33:28.089Z,99.22
2023-02-27T05:36:25.259Z,99.16
2023-02-27T05:39:16.082Z,98.82
2023-02-27T05:41:59.251Z,98.58
2023-02-27T05:44:52.096Z,98.74
2023-02-27T05:47:30.227Z,98.74
2023-02-27T05:50:22.113Z,99.58
2023-02-27T05:52:58.548Z,98.53
2023-02-27T05:55:50.114Z,98.39
2023-02-27T05:58:32.320Z,98.45
2023-02-27T06:01:19.105Z,98.26
2023-02-27T06:03:53.828Z,98.02
2023-02-27T06:06:43.093Z,97.46
2023-02-27T06:09:16.683Z,98.12
2023-02-27T06:12:03.164Z,98.08
2023-02-27T06:14:36.246Z,97.49
2023-02-27T06:17:26.254Z,97.37
2023-02-27T06:20:06.091Z,97.19
2023-02-27T06:23:00.147Z,97.28
2023-02-27T06:25:49.116Z,97.15
2023-02-27T06:28:22.254Z,97.46
2023-02-27T06:31:10.156Z,97.12
2023-02-27T06:33:43.263Z,97.65
2023-02-27T06:36:30.440Z,97.70
2023-02-27T06:39:11.180Z,97.29
2023-02-27T06:42:05.161Z,97.23
2023-02-27T06:44:59.090Z,96.19
2023-02-27T06:47:48.128Z,96.20
2023-02-27T06:50:21.259Z,96.42
2023-02-27T06:53:08.087Z,94.76
2023-02-27T06:55:42.153Z,95.34
2023-02-27T06:58:31.161Z,95.05
2023-02-27T07:01:14.162Z,94.81
2023-02-27T07:04:08.113Z,94.67
2023-02-27T07:07:35.227Z,94.93
2023-02-27T07:09:55.164Z,93.84
2023-02-27T07:12:49.161Z,94.64
2023-02-27T07:15:36.151Z,93.99
2023-02-27T07:18:09.260Z,94.01
2023-02-27T07:20:59.163Z,94.62
2023-02-27T07:23:32.729Z,93.95
2023-02-27T07:26:19.174Z,93.31
2023-02-27T07:28:52.221Z,93.64
2023-02-27T07:31:39.131Z,93.67
2023-02-27T07:34:13.110Z,93.52
2023-02-27T07:37:00.110Z,92.03
2023-02-27T07:39:33.341Z,92.15
2023-02-27T07:42:20.119Z,91.78
2023-02-27T07:44:53.270Z,92.32
2023-02-27T07:47:40.160Z,93.26
2023-02-27T07:50:14.256Z,92.24
2023-02-27T07:53:01.170Z,91.22
2023-02-27T07:55:34.337Z,90.79
2023-02-27T07:58:21.207Z,90.98
2023-02-27T08:01:01.170Z,91.24
2023-02-27T08:03:48.158Z,90.36
2023-02-27T08:06:21.897Z,90.85
2023-02-27T08:09:08.127Z,90.75
2023-02-27T08:11:49.245Z,89.98
2023-02-27T08:14:43.178Z,90.77
2023-02-27T08:17:30.135Z,90.93
2023-02-27T08:20:04.808Z,91.28
2023-02-27T08:22:51.174Z,90.02
2023-02-27T08:25:25.265Z,89.30
2023-02-27T08:28:12.202Z,89.16
2023-02-27T08:30:52.140Z,89.13
2023-02-27T08:33:49.496Z,90.22
2023-02-27T08:36:36.194Z,88.98
2023-02-27T08:39:09.373Z,88.25
2023-02-27T08:41:57.199Z,87.23
2023-02-27T08:44:30.301Z,89.61
2023-02-27T08:47:17.168Z,89.22
2023-02-27T08:49:50.285Z,87.91
2023-02-27T08:52:37.170Z,90.62
2023-02-27T08:55:10.307Z,89.21
2023-02-27T08:57:57.172Z,87.82
2023-02-27T09:00:32.429Z,88.87
2023-02-27T09:03:19.169Z,85.62
2023-02-27T09:05:54.291Z,84.75
2023-02-27T09:08:41.181Z,83.99
2023-02-27T09:11:21.175Z,84.10
2023-02-27T09:14:08.197Z,83.79
2023-02-27T09:16:48.301Z,85.05
2023-02-27T09:19:42.213Z,84.77
2023-02-27T09:22:29.182Z,82.30
2023-02-27T09:25:02.340Z,80.49
2023-02-27T09:27:51.208Z,79.64
2023-02-27T09:30:24.346Z,82.14
2023-02-27T09:33:11.172Z,82.45
2023-02-27T09:35:44.322Z,82.18
2023-02-27T09:38:31.172Z,84.12
2023-02-27T09:41:04.288Z,83.97
2023-02-27T09:43:54.196Z,84.24
2023-02-27T09:46:30.305Z,82.95
2023-02-27T09:49:22.195Z,81.65
2023-02-27T09:51:58.282Z,81.09
2023-02-27T09:54:45.177Z,81.80
2023-02-27T09:57:25.804Z,82.54
2023-02-27T10:00:25.190Z,83.70
2023-02-27T10:03:40.232Z,82.87
2023-02-27T10:06:55.201Z,83.12
2023-02-27T10:09:58.201Z,79.07
2023-02-27T10:12:56.197Z,80.62
2023-02-27T10:16:00.244Z,79.51
2023-02-27T10:19:04.213Z,81.35
2023-02-27T10:22:01.201Z,81.06
2023-02-27T10:24:54.260Z,79.54
2023-02-27T10:27:36.197Z,81.51
2023-02-27T10:30:36.411Z,81.20
2023-02-27T10:33:34.234Z,80.77
2023-02-27T10:36:32.413Z,81.53
2023-02-27T10:39:24.274Z,78.97
2023-02-27T10:41:58.320Z,80.37
2023-02-27T10:44:45.195Z,80.46
2023-02-27T10:47:31.213Z,80.20
2023-02-27T10:50:39.205Z,79.31
2023-02-27T10:53:32.205Z,78.36
2023-02-27T10:56:12.349Z,80.42
2023-02-27T10:59:16.337Z,80.06
2023-02-27T11:05:15.185Z,77.11
2023-02-27T11:08:23.212Z,79.93
2023-02-27T11:11:18.276Z,80.36
2023-02-27T11:14:31.211Z,79.65
2023-02-27T11:17:09.393Z,80.19
2023-02-27T11:19:56.252Z,79.98
2023-02-27T11:22:39.209Z,80.04
2023-02-27T11:25:31.200Z,80.95
2023-02-27T11:28:41.214Z,78.33
2023-02-27T11:31:37.233Z,80.53
2023-02-27T11:34:35.220Z,80.91
2023-02-27T11:37:33.375Z,80.04
2023-02-27T11:40:22.228Z,80.44
2023-02-27T11:43:30.260Z,79.42
2023-02-27T11:46:46.311Z,79.14
2023-02-27T11:49:35.219Z,79.29
2023-02-27T11:52:37.192Z,79.56
2023-02-27T11:55:29.227Z,78.34
2023-02-27T11:58:30.266Z,78.26
2023-02-27T12:01:34.292Z,79.76
2023-02-27T12:04:24.332Z,78.48
2023-02-27T12:07:36.257Z,78.30
2023-02-27T12:10:32.225Z,79.18
2023-02-27T12:13:33.342Z,80.42
2023-02-27T12:16:33.298Z,80.33
2023-02-27T12:19:44.348Z,79.53
2023-02-27T12:22:40.266Z,79.20
2023-02-27T12:25:29.432Z,80.31
2023-02-27T12:28:42.221Z,80.24
2023-02-27T12:31:33.231Z,79.57
2023-02-27T12:35:02.260Z,77.65
2023-02-27T12:37:49.229Z,76.83
2023-02-27T12:40:24.357Z,75.83
2023-02-27T12:43:29.310Z,78.97
2023-02-27T12:46:34.254Z,77.54
2023-02-27T12:49:49.209Z,75.42
2023-02-27T12:52:56.228Z,77.57
2023-02-27T12:55:35.402Z,77.87
2023-02-27T12:58:31.281Z,75.88
2023-02-27T13:01:50.349Z,78.67
2023-02-27T13:05:04.318Z,76.71
2023-02-27T13:08:16.272Z,76.68
2023-02-27T13:11:21.290Z,76.77
2023-02-27T13:13:59.366Z,78.58
2023-02-27T13:16:49.387Z,78.33
2023-02-27T13:19:37.413Z,78.36
2023-02-27T13:22:40.241Z,77.57
2023-02-27T13:25:20.392Z,78.48
2023-02-27T13:28:11.258Z,78.29
2023-02-27T13:31:14.319Z,78.00
2023-02-27T13:34:18.275Z,76.79
2023-02-27T13:37:11.340Z,78.31
2023-02-27T13:39:51.948Z,78.25
2023-02-27T13:42:39.278Z,77.29
2023-02-27T13:45:51.501Z,78.47
2023-02-27T13:48:48.256Z,78.85
2023-02-27T13:51:50.304Z,76.97
2023-02-27T13:54:57.289Z,76.98
2023-02-27T13:57:46.266Z,77.43
2023-02-27T14:00:31.372Z,79.38
2023-02-27T14:03:28.270Z,79.04
2023-02-27T14:06:12.246Z,79.36
2023-02-27T14:09:14.873Z,79.35
2023-02-27T14:12:06.275Z,79.98
2023-02-27T14:14:52.253Z,80.43
2023-02-27T14:17:54.666Z,81.12
2023-02-27T14:20:46.270Z,81.68
2023-02-27T14:23:22.418Z,80.44
2023-02-27T14:26:22.480Z,80.48
2023-02-27T14:29:04.407Z,80.31
2023-02-27T14:31:52.341Z,81.61
2023-02-27T14:34:28.401Z,81.48
2023-02-27T14:37:23.283Z,79.82
2023-02-27T14:40:08.467Z,80.43
2023-02-27T14:43:08.277Z,81.63
2023-02-27T14:45:48.388Z,81.70
2023-02-27T14:48:44.277Z,81.46
2023-02-27T14:51:32.262Z,81.14
2023-02-27T14:54:32.399Z,81.46
2023-02-27T14:57:13.312Z,81.54
2023-02-27T14:59:56.269Z,81.69
2023-02-27T15:02:38.386Z,81.93
2023-02-27T15:05:31.797Z,82.72
2023-02-27T15:08:14.284Z,82.50
2023-02-27T15:11:10.280Z,81.38
2023-02-27T15:14:24.264Z,82.85
2023-02-27T15:17:23.283Z,83.39
2023-02-27T15:20:06.382Z,83.44
2023-02-27T15:22:53.334Z,83.18
2023-02-27T15:25:42.386Z,83.63
2023-02-27T15:28:33.283Z,82.75
2023-02-27T15:31:13.407Z,83.06
2023-02-27T15:34:07.269Z,83.09
2023-02-27T15:37:04.337Z,82.57
2023-02-27T15:39:47.001Z,83.15
2023-02-27T15:42:38.303Z,83.38
2023-02-27T15:45:13.386Z,83.65
2023-02-27T15:48:00.332Z,84.08
2023-02-27T15:50:44.392Z,83.89
2023-02-27T15:53:36.350Z,83.76
2023-02-27T15:56:18.403Z,85.02
2023-02-27T15:59:07.338Z,84.79
2023-02-27T16:01:48.350Z,84.76
2023-02-27T16:04:42.283Z,83.90
2023-02-27T16:07:39.338Z,83.95
2023-02-27T16:10:31.331Z,84.48
2023-02-27T16:13:04.368Z,84.82
2023-02-27T16:15:51.354Z,84.89
2023-02-27T16:18:24.384Z,84.73
2023-02-27T16:21:17.310Z,85.26
2023-02-27T16:23:52.428Z,84.69
2023-02-27T16:26:43.312Z,85.29
2023-02-27T16:29:26.445Z,84.99
2023-02-27T16:32:31.351Z,85.22
2023-02-27T16:35:18.303Z,84.94
2023-02-27T16:38:15.329Z,84.62
2023-02-27T16:41:02.390Z,85.35
2023-02-27T16:43:35.464Z,85.72
2023-02-27T16:46:28.628Z,85.56
2023-02-27T16:49:17.861Z,85.47
2023-02-27T16:52:05.297Z,85.89
2023-02-27T16:54:38.429Z,84.94
2023-02-27T16:57:25.298Z,85.55
2023-02-27T17:00:05.312Z,86.11
2023-02-27T17:02:53.299Z,86.00
2023-02-27T17:05:26.543Z,85.10
2023-02-27T17:08:13.359Z,85.49
2023-02-27T17:10:46.413Z,84.75
2023-02-27T17:13:33.447Z,84.88
2023-02-27T17:16:06.432Z,85.56
2023-02-27T17:18:53.343Z,86.21
2023-02-27T17:21:27.548Z,85.92
2023-02-27T17:24:14.326Z,85.72
2023-02-27T17:26:54.336Z,85.37
2023-02-27T17:29:44.324Z,86.12
2023-02-27T17:32:24.375Z,86.44
2023-02-27T17:35:18.326Z,86.33
2023-02-27T17:38:07.480Z,86.28
2023-02-27T17:40:43.531Z,86.94
2023-02-27T17:43:30.341Z,86.38
2023-02-27T17:46:03.473Z,86.44
2023-02-27T17:48:50.343Z,86.01
2023-02-27T17:51:31.355Z,86.40
2023-02-27T17:54:25.351Z,87.07
2023-02-27T17:57:13.334Z,86.49
2023-02-27T17:59:53.336Z,86.40
2023-02-27T18:02:40.375Z,86.73
2023-02-27T18:05:13.546Z,86.36
2023-02-27T18:08:00.345Z,86.63
2023-02-27T18:10:40.346Z,86.37
2023-02-27T18:13:34.450Z,86.24
2023-02-27T18:16:21.342Z,86.36
2023-02-27T18:18:55.463Z,86.67
2023-02-27T18:21:42.403Z,86.42
2023-02-27T18:24:23.363Z,86.35
2023-02-27T18:27:18.345Z,86.57
2023-02-27T18:30:12.383Z,86.98
2023-02-27T18:33:10.332Z,86.71
2023-02-27T18:35:57.430Z,86.86
2023-02-27T18:38:37.365Z,86.48
2023-02-27T18:41:31.343Z,86.51
2023-02-27T18:44:18.353Z,86.22
2023-02-27T18:46:58.410Z,86.55
2023-02-27T18:49:52.372Z,86.24
2023-02-27T18:52:39.355Z,86.55
2023-02-27T18:55:13.458Z,86.92
2023-02-27T18:58:00.354Z,86.34
2023-02-27T19:00:33.486Z,86.79
2023-02-27T19:03:20.414Z,86.77
2023-02-27T19:06:00.356Z,86.98
2023-02-27T19:08:54.342Z,87.89
2023-02-27T19:11:48.392Z,87.63
2023-02-27T19:14:35.401Z,87.47
2023-02-27T19:17:15.351Z,88.18
2023-02-27T19:20:09.408Z,88.29
2023-02-27T19:22:56.390Z,87.68
2023-02-27T19:25:29.970Z,87.76
2023-02-27T19:28:18.364Z,87.75
2023-02-27T19:30:52.651Z,87.43
2023-02-27T19:33:39.356Z,88.31
2023-02-27T19:36:17.799Z,88.29
2023-02-27T19:39:05.354Z,88.38
2023-02-27T19:41:38.487Z,87.92
2023-02-27T19:44:25.366Z,87.89
2023-02-27T19:47:05.482Z,87.94
2023-02-27T19:49:52.378Z,88.95
2023-02-27T19:52:25.464Z,88.90
2023-02-27T19:55:13.400Z,88.88
2023-02-27T19:57:46.491Z,88.62
2023-02-27T20:00:33.386Z,88.43
2023-02-27T20:03:06.472Z,89.12
2023-02-27T20:05:53.373Z,88.87
2023-02-27T20:08:26.545Z,88.67
2023-02-27T20:11:13.388Z,89.37
2023-02-27T20:13:46.559Z,89.69
2023-02-27T20:16:36.391Z,90.15
2023-02-27T20:19:13.898Z,90.37
2023-02-27T20:22:03.402Z,90.32
2023-02-27T20:24:36.481Z,89.67
2023-02-27T20:27:23.398Z,90.24
2023-02-27T20:30:08.401Z,90.09
2023-02-27T20:33:03.423Z,90.08
2023-02-27T20:35:57.398Z,90.39
2023-02-27T20:38:45.398Z,90.01
2023-02-27T20:41:29.962Z,89.99
2023-02-27T20:44:18.391Z,89.79
2023-02-27T20:46:58.432Z,89.94
2023-02-27T20:49:52.385Z,90.10
2023-02-27T20:52:39.406Z,89.89
2023-02-27T20:55:13.509Z,90.06
2023-02-27T20:58:00.407Z,89.37
2023-02-27T21:00:33.560Z,89.83
2023-02-27T21:03:20.412Z,89.47
2023-02-27T21:05:54.489Z,89.59
2023-02-27T21:08:43.409Z,90.08
2023-02-27T21:11:37.400Z,89.31
2023-02-27T21:14:24.429Z,89.01
2023-02-27T21:16:57.491Z,89.56
2023-02-27T21:19:46.420Z,89.87
2023-02-27T21:22:19.503Z,90.07
2023-02-27T21:25:06.428Z,90.42
2023-02-27T21:27:46.476Z,90.60
2023-02-27T21:30:40.406Z,90.42
2023-02-27T21:33:35.448Z,91.05
2023-02-27T21:36:29.427Z,91.06
2023-02-27T21:39:21.429Z,91.39
2023-02-27T21:42:02.469Z,91.51
2023-02-27T21:44:56.407Z,91.32
2023-02-27T21:47:43.416Z,91.82
2023-02-27T21:50:21.764Z,91.67
2023-02-27T21:53:08.444Z,91.44
2023-02-27T21:55:41.539Z,91.74
2023-02-27T21:58:29.481Z,91.78
2023-02-27T22:01:03.317Z,91.68
2023-02-27T22:03:51.441Z,91.87
2023-02-27T22:06:33.415Z,91.96
2023-02-27T22:09:27.454Z,92.02
2023-02-27T22:12:16.142Z,92.26
2023-02-27T22:14:49.816Z,92.26
2023-02-27T22:17:36.427Z,92.41
2023-02-27T22:20:16.433Z,92.34
2023-02-27T22:23:11.417Z,92.25
2023-02-27T22:26:08.466Z,92.86
2023-02-27T22:28:42.628Z,92.18
2023-02-27T22:31:38.512Z,92.65
2023-02-27T22:34:25.429Z,92.69
2023-02-27T22:37:05.413Z,92.99
2023-02-27T22:40:01.582Z,92.56
2023-02-27T22:42:58.424Z,92.82
2023-02-27T22:45:38.437Z,93.19
2023-02-27T22:48:32.424Z,93.26
2023-02-27T22:51:28.989Z,93.20
2023-02-27T22:54:23.444Z,93.00
2023-02-27T22:57:12.483Z,93.42
2023-02-27T22:59:52.449Z,93.80
2023-02-27T23:02:46.446Z,93.60
2023-02-27T23:05:33.463Z,93.28
2023-02-27T23:08:06.549Z,93.33
2023-02-27T23:10:53.457Z,93.28
2023-02-27T23:13:33.566Z,92.88
2023-02-27T23:16:27.680Z,93.45
2023-02-27T23:19:14.459Z,93.54
2023-02-27T23:21:47.612Z,93.48
2023-02-27T23:24:34.440Z,93.79
2023-02-27T23:27:25.074Z,93.74
2023-02-27T23:30:13.492Z,93.70
2023-02-27T23:32:46.652Z,94.51
2023-02-27T23:35:34.495Z,94.18
2023-02-27T23:38:07.707Z,94.20
2023-02-27T23:40:54.432Z,94.35
2023-02-27T23:43:35.441Z,93.89
2023-02-27T23:46:29.430Z,94.21
2023-02-27T23:49:17.446Z,94.38
2023-02-27T23:51:57.426Z,94.22
2023-02-27T23:54:44.418Z,94.53
2023-02-27T23:57:24.448Z,94.46
